createdAt,value
2016-05-06T00:00:58.791Z,0
2016-05-06T00:01:58.777Z,0
2016-05-06T00:02:58.609Z,0
2016-05-06T00:03:58.753Z,0
2016-05-06T00:04:58.583Z,0
2016-05-06T00:05:58.397Z,0
2016-05-06T00:06:58.682Z,0
2016-05-06T00:07:58.668Z,0
2016-05-06T00:08:58.656Z,0
2016-05-06T00:09:58.486Z,0
2016-05-06T00:10:59.052Z,0
2016-05-06T00:11:58.616Z,0
2016-05-06T00:12:59.449Z,0
2016-05-06T00:13:58.560Z,0
2016-05-06T00:14:58.454Z,0
2016-05-06T00:15:58.549Z,0
2016-05-06T00:16:58.537Z,0
2016-05-06T00:17:58.492Z,0
2016-05-06T00:18:58.480Z,0
2016-05-06T00:19:58.326Z,0
2016-05-06T00:20:58.290Z,0
2016-05-06T00:21:58.247Z,0
2016-05-06T00:22:58.265Z,0
2016-05-06T00:23:58.377Z,0
2016-05-06T00:24:58.223Z,0
2016-05-06T00:25:58.851Z,0
2016-05-06T00:26:58.369Z,0
2016-05-06T00:27:58.169Z,0
2016-05-06T00:28:58.140Z,0
2016-05-06T00:29:58.143Z,0
2016-05-06T00:30:58.115Z,0
2016-05-06T00:31:58.257Z,0
2016-05-06T00:32:58.104Z,0
2016-05-06T00:33:58.232Z,0
2016-05-06T00:34:58.203Z,0
2016-05-06T00:35:58.176Z,0
2016-05-06T00:36:58.178Z,0
2016-05-06T00:37:58.148Z,0
2016-05-06T00:38:57.980Z,0
2016-05-06T00:39:57.967Z,0
2016-05-06T00:40:57.781Z,0
2016-05-06T00:41:58.097Z,0
2016-05-06T00:42:57.897Z,0
2016-05-06T00:43:58.056Z,0
2016-05-06T00:44:58.027Z,0
2016-05-06T00:45:57.686Z,0
2016-05-06T00:46:57.985Z,0
2016-05-06T00:47:57.972Z,0
2016-05-06T00:48:57.803Z,0
2016-05-06T00:49:57.931Z,0
2016-05-06T00:50:57.949Z,0
2016-05-06T00:51:57.765Z,0
2016-05-06T00:52:57.908Z,0
2016-05-06T00:53:57.692Z,0
2016-05-06T00:54:57.523Z,0
2016-05-06T00:55:57.838Z,0
2016-05-06T00:56:57.794Z,0
2016-05-06T00:57:57.796Z,0
2016-05-06T00:58:57.471Z,0
2016-05-06T00:59:57.614Z,0
2016-05-06T01:00:57.743Z,0
2016-05-06T01:01:57.573Z,0
2016-05-06T01:02:57.701Z,0
2016-05-06T01:03:57.687Z,0
2016-05-06T01:04:57.675Z,0
2016-05-06T01:05:57.646Z,0
2016-05-06T01:06:57.634Z,0
2016-05-06T01:07:57.604Z,0
2016-05-06T01:08:57.607Z,0
2016-05-06T01:09:57.595Z,0
2016-05-06T01:10:57.456Z,0
2016-05-06T01:11:57.553Z,0
2016-05-06T01:12:57.524Z,0
2016-05-06T01:13:57.512Z,0
2016-05-06T01:14:57.358Z,0
2016-05-06T01:15:57.486Z,0
2016-05-06T01:16:57.457Z,0
2016-05-06T01:17:57.444Z,0
2016-05-06T01:18:57.259Z,0
2016-05-06T01:19:57.419Z,0
2016-05-06T01:20:57.405Z,0
2016-05-06T01:21:57.376Z,0
2016-05-06T01:22:57.192Z,0
2016-05-06T01:23:57.335Z,0
2016-05-06T01:24:57.338Z,0
2016-05-06T01:25:57.918Z,0
2016-05-06T01:26:57.297Z,0
2016-05-06T01:27:57.252Z,0
2016-05-06T01:28:57.240Z,0
2016-05-06T01:29:57.070Z,0
2016-05-06T01:30:57.229Z,0
2016-05-06T01:31:57.248Z,0
2016-05-06T01:32:57.187Z,0
2016-05-06T01:33:57.143Z,0
2016-05-06T01:34:57.145Z,0
2016-05-06T01:35:57.134Z,0
2016-05-06T01:36:57.120Z,0
2016-05-06T01:37:57.075Z,0
2016-05-06T01:38:56.766Z,0
2016-05-06T01:39:57.051Z,0
2016-05-06T01:40:57.209Z,0
2016-05-06T01:41:57.024Z,0
2016-05-06T01:42:56.840Z,0
2016-05-06T01:43:56.686Z,0
2016-05-06T01:44:56.798Z,0
2016-05-06T01:45:56.816Z,0
2016-05-06T01:46:56.944Z,0
2016-05-06T01:47:56.775Z,0
2016-05-06T01:48:56.903Z,0
2016-05-06T01:49:56.889Z,0
2016-05-06T01:50:56.876Z,0
2016-05-06T01:51:56.864Z,0
2016-05-06T01:52:56.836Z,0
2016-05-06T01:53:56.822Z,0
2016-05-06T01:54:56.637Z,0
2016-05-06T01:55:57.219Z,0
2016-05-06T01:56:56.768Z,0
2016-05-06T01:57:56.755Z,0
2016-05-06T01:58:56.726Z,0
2016-05-06T01:59:56.713Z,0
2016-05-06T02:00:56.685Z,0
2016-05-06T02:01:56.656Z,0
2016-05-06T02:02:56.643Z,0
2016-05-06T02:03:56.629Z,0
2016-05-06T02:04:56.618Z,0
2016-05-06T02:05:56.464Z,0
2016-05-06T02:06:56.592Z,0
2016-05-06T02:07:56.578Z,0
2016-05-06T02:08:56.581Z,0
2016-05-06T02:09:56.537Z,0
2016-05-06T02:10:58.570Z,0
2016-05-06T02:11:56.511Z,0
2016-05-06T02:12:56.311Z,0
2016-05-06T02:13:56.454Z,0
2016-05-06T02:14:56.441Z,0
2016-05-06T02:15:56.444Z,0
2016-05-06T02:16:56.431Z,0
2016-05-06T02:17:56.387Z,0
2016-05-06T02:18:56.217Z,0
2016-05-06T02:19:56.377Z,0
2016-05-06T02:20:56.348Z,0
2016-05-06T02:21:56.163Z,0
2016-05-06T02:22:56.322Z,0
2016-05-06T02:23:56.281Z,0
2016-05-06T02:24:56.268Z,0
2016-05-06T02:25:58.100Z,0
2016-05-06T02:26:56.087Z,0
2016-05-06T02:27:56.089Z,0
2016-05-06T02:28:56.233Z,0
2016-05-06T02:29:56.031Z,0
2016-05-06T02:30:56.176Z,0
2016-05-06T02:31:56.147Z,0
2016-05-06T02:32:56.133Z,0
2016-05-06T02:33:56.121Z,0
2016-05-06T02:34:56.077Z,0
2016-05-06T02:35:55.955Z,0
2016-05-06T02:36:55.894Z,0
2016-05-06T02:37:56.039Z,0
2016-05-06T02:38:55.885Z,0
2016-05-06T02:39:56.013Z,0
2016-05-06T02:40:56.905Z,0
2016-05-06T02:41:55.657Z,0
2016-05-06T02:42:55.957Z,0
2016-05-06T02:43:55.774Z,0
2016-05-06T02:44:55.916Z,0
2016-05-06T02:45:55.746Z,0
2016-05-06T02:46:55.875Z,0
2016-05-06T02:47:55.549Z,0
2016-05-06T02:48:55.848Z,0
2016-05-06T02:49:55.679Z,0
2016-05-06T02:50:55.636Z,0
2016-05-06T02:51:55.623Z,0
2016-05-06T02:52:55.781Z,0
2016-05-06T02:53:55.769Z,0
2016-05-06T02:54:55.723Z,0
2016-05-06T02:55:55.993Z,0
2016-05-06T02:56:55.542Z,0
2016-05-06T02:57:55.514Z,0
2016-05-06T02:58:55.657Z,0
2016-05-06T02:59:55.473Z,0
2016-05-06T03:00:55.631Z,0
2016-05-06T03:01:55.617Z,0
2016-05-06T03:02:55.590Z,0
2016-05-06T03:03:55.561Z,0
2016-05-06T03:04:55.392Z,0
2016-05-06T03:05:55.238Z,0
2016-05-06T03:06:55.553Z,0
2016-05-06T03:07:55.338Z,0
2016-05-06T03:08:55.340Z,0
2016-05-06T03:09:55.468Z,0
2016-05-06T03:10:55.783Z,0
2016-05-06T03:11:55.442Z,0
2016-05-06T03:12:55.272Z,0
2016-05-06T03:13:55.416Z,0
2016-05-06T03:14:55.215Z,0
2016-05-06T03:15:55.375Z,0
2016-05-06T03:16:55.362Z,0
2016-05-06T03:17:55.177Z,0
2016-05-06T03:18:55.163Z,0
2016-05-06T03:19:55.276Z,0
2016-05-06T03:20:55.279Z,0
2016-05-06T03:21:55.250Z,0
2016-05-06T03:22:55.081Z,0
2016-05-06T03:23:55.084Z,0
2016-05-06T03:24:54.884Z,0
2016-05-06T03:25:55.104Z,0
2016-05-06T03:26:55.045Z,0
2016-05-06T03:27:55.157Z,0
2016-05-06T03:28:55.144Z,0
2016-05-06T03:29:55.131Z,0
2016-05-06T03:30:55.103Z,0
2016-05-06T03:31:55.089Z,0
2016-05-06T03:32:55.061Z,0
2016-05-06T03:33:54.892Z,0
2016-05-06T03:34:55.035Z,0
2016-05-06T03:35:55.006Z,0
2016-05-06T03:36:54.994Z,0
2016-05-06T03:37:54.981Z,0
2016-05-06T03:38:54.952Z,0
2016-05-06T03:39:54.924Z,0
2016-05-06T03:40:55.156Z,0
2016-05-06T03:41:55.078Z,0
2016-05-06T03:42:54.939Z,0
2016-05-06T03:43:54.924Z,0
2016-05-06T03:44:54.838Z,0
2016-05-06T03:45:54.810Z,0
2016-05-06T03:46:54.656Z,0
2016-05-06T03:47:54.784Z,0
2016-05-06T03:48:54.755Z,0
2016-05-06T03:49:54.758Z,0
2016-05-06T03:50:54.713Z,0
2016-05-06T03:51:54.716Z,0
2016-05-06T03:52:54.547Z,0
2016-05-06T03:53:54.690Z,0
2016-05-06T03:54:54.663Z,0
2016-05-06T03:55:54.946Z,0
2016-05-06T03:56:54.605Z,0
2016-05-06T03:57:54.623Z,0
2016-05-06T03:58:54.438Z,0
2016-05-06T03:59:54.426Z,0
2016-05-06T04:00:54.429Z,0
2016-05-06T04:01:54.384Z,0
2016-05-06T04:02:54.527Z,0
2016-05-06T04:03:54.499Z,0
2016-05-06T04:04:54.329Z,0
2016-05-06T04:05:54.300Z,0
2016-05-06T04:06:54.445Z,0
2016-05-06T04:07:54.276Z,0
2016-05-06T04:08:54.262Z,0
2016-05-06T04:09:54.389Z,0
2016-05-06T04:10:54.112Z,0
2016-05-06T04:11:54.191Z,0
2016-05-06T04:12:54.195Z,0
2016-05-06T04:13:54.322Z,0
2016-05-06T04:14:54.341Z,0
2016-05-06T04:15:53.984Z,0
2016-05-06T04:16:54.268Z,0
2016-05-06T04:17:54.255Z,0
2016-05-06T04:18:54.257Z,0
2016-05-06T04:19:54.074Z,0
2016-05-06T04:20:54.044Z,0
2016-05-06T04:21:54.188Z,0
2016-05-06T04:22:54.174Z,0
2016-05-06T04:23:54.162Z,0
2016-05-06T04:24:54.102Z,0
2016-05-06T04:25:54.182Z,0
2016-05-06T04:26:54.107Z,0
2016-05-06T04:27:54.079Z,0
2016-05-06T04:28:53.910Z,0
2016-05-06T04:29:54.037Z,0
2016-05-06T04:30:54.024Z,0
2016-05-06T04:31:53.856Z,0
2016-05-06T04:32:53.968Z,0
2016-05-06T04:33:53.970Z,0
2016-05-06T04:34:53.957Z,0
2016-05-06T04:35:53.929Z,0
2016-05-06T04:36:53.915Z,0
2016-05-06T04:37:53.903Z,0
2016-05-06T04:38:53.858Z,0
2016-05-06T04:39:53.861Z,0
2016-05-06T04:40:53.442Z,0
2016-05-06T04:41:53.664Z,0
2016-05-06T04:42:53.494Z,0
2016-05-06T04:43:53.763Z,0
2016-05-06T04:44:53.781Z,0
2016-05-06T04:45:53.611Z,0
2016-05-06T04:46:53.583Z,0
2016-05-06T04:47:53.711Z,0
2016-05-06T04:48:53.698Z,0
2016-05-06T04:49:53.529Z,0
2016-05-06T04:50:53.657Z,0
2016-05-06T04:51:53.659Z,0
2016-05-06T04:52:53.615Z,0
2016-05-06T04:53:53.461Z,0
2016-05-06T04:54:53.605Z,0
2016-05-06T04:55:53.451Z,0
2016-05-06T04:56:53.423Z,0
2016-05-06T04:57:53.551Z,0
2016-05-06T04:58:53.396Z,0
2016-05-06T04:59:53.368Z,0
2016-05-06T05:00:53.495Z,0
2016-05-06T05:01:53.499Z,0
2016-05-06T05:02:53.439Z,0
2016-05-06T05:03:53.441Z,0
2016-05-06T05:04:53.429Z,0
2016-05-06T05:05:53.400Z,0
2016-05-06T05:06:53.403Z,0
2016-05-06T05:07:53.217Z,0
2016-05-06T05:08:53.331Z,0
2016-05-06T05:09:53.192Z,0
2016-05-06T05:10:53.234Z,0
2016-05-06T05:11:53.361Z,0
2016-05-06T05:12:53.379Z,0
2016-05-06T05:13:53.414Z,0
2016-05-06T05:14:53.308Z,0
2016-05-06T05:15:53.468Z,0
2016-05-06T05:16:53.159Z,0
2016-05-06T05:17:53.304Z,0
2016-05-06T05:18:53.464Z,0
2016-05-06T05:19:53.327Z,0
2016-05-06T05:20:53.451Z,0
2016-05-06T05:21:53.132Z,0
2016-05-06T05:22:53.454Z,0
2016-05-06T05:23:53.430Z,0
2016-05-06T05:24:53.425Z,0
2016-05-06T05:25:53.696Z,0
2016-05-06T05:26:53.390Z,0
2016-05-06T05:27:53.222Z,0
2016-05-06T05:28:53.353Z,0
2016-05-06T05:29:53.341Z,0
2016-05-06T05:30:53.330Z,0
2016-05-06T05:31:53.318Z,0
2016-05-06T05:32:53.118Z,0
2016-05-06T05:33:53.122Z,0
2016-05-06T05:34:53.266Z,0
2016-05-06T05:35:53.238Z,0
2016-05-06T05:36:53.225Z,0
2016-05-06T05:37:53.072Z,0
2016-05-06T05:38:53.200Z,0
2016-05-06T05:39:53.016Z,0
2016-05-06T05:40:53.472Z,0
2016-05-06T05:41:53.131Z,0
2016-05-06T05:42:53.118Z,0
2016-05-06T05:43:53.105Z,0
2016-05-06T05:44:53.092Z,0
2016-05-06T05:45:52.923Z,0
2016-05-06T05:46:53.051Z,0
2016-05-06T05:47:53.038Z,0
2016-05-06T05:48:53.025Z,0
2016-05-06T05:49:52.871Z,0
2016-05-06T05:50:52.999Z,0
2016-05-06T05:51:52.798Z,0
2016-05-06T05:52:52.957Z,0
2016-05-06T05:53:52.616Z,0
2016-05-06T05:54:52.760Z,5
2016-05-06T05:55:54.856Z,5
2016-05-06T05:56:52.749Z,5
2016-05-06T05:57:52.409Z,5
2016-05-06T05:58:52.864Z,5
2016-05-06T05:59:52.679Z,5
2016-05-06T06:00:52.807Z,5
2016-05-06T06:01:53.184Z,5
2016-05-06T06:02:52.625Z,5
2016-05-06T06:03:52.612Z,5
2016-05-06T06:04:52.755Z,5
2016-05-06T06:05:52.742Z,5
2016-05-06T06:06:52.698Z,5
2016-05-06T06:07:52.529Z,5
2016-05-06T06:08:52.672Z,5
2016-05-06T06:09:52.659Z,5
2016-05-06T06:10:52.583Z,5
2016-05-06T06:11:52.633Z,5
2016-05-06T06:12:52.605Z,5
2016-05-06T06:13:52.608Z,5
2016-05-06T06:14:52.580Z,5
2016-05-06T06:15:52.394Z,5
2016-05-06T06:16:52.381Z,5
2016-05-06T06:17:52.510Z,5
2016-05-06T06:18:52.496Z,10
2016-05-06T06:19:52.483Z,10
2016-05-06T06:20:52.455Z,10
2016-05-06T06:21:52.457Z,10
2016-05-06T06:22:52.444Z,10
2016-05-06T06:23:52.400Z,10
2016-05-06T06:24:52.404Z,10
2016-05-06T06:25:52.702Z,15
2016-05-06T06:26:52.049Z,15
2016-05-06T06:27:52.348Z,20
2016-05-06T06:28:52.320Z,20
2016-05-06T06:29:52.166Z,20
2016-05-06T06:30:52.138Z,15
2016-05-06T06:31:52.281Z,15
2016-05-06T06:32:52.111Z,20
2016-05-06T06:33:52.256Z,20
2016-05-06T06:34:52.226Z,20
2016-05-06T06:35:52.228Z,20
2016-05-06T06:36:52.029Z,20
2016-05-06T06:37:52.047Z,20
2016-05-06T06:38:52.144Z,20
2016-05-06T06:39:51.990Z,20
2016-05-06T06:40:52.774Z,20
2016-05-06T06:41:51.933Z,20
2016-05-06T06:42:52.076Z,15
2016-05-06T06:43:52.063Z,15
2016-05-06T06:44:52.050Z,20
2016-05-06T06:45:51.741Z,20
2016-05-06T06:46:52.025Z,20
2016-05-06T06:47:52.058Z,25
2016-05-06T06:48:51.983Z,20
2016-05-06T06:49:51.954Z,20
2016-05-06T06:50:51.801Z,15
2016-05-06T06:51:51.476Z,15
2016-05-06T06:52:51.775Z,15
2016-05-06T06:53:51.902Z,15
2016-05-06T06:54:51.734Z,20
2016-05-06T06:55:52.470Z,20
2016-05-06T06:56:52.051Z,20
2016-05-06T06:57:51.820Z,25
2016-05-06T06:58:51.650Z,25
2016-05-06T06:59:51.794Z,25
2016-05-06T07:00:51.609Z,20
2016-05-06T07:01:51.596Z,25
2016-05-06T07:02:51.740Z,20
2016-05-06T07:03:51.726Z,20
2016-05-06T07:04:51.713Z,15
2016-05-06T07:05:51.700Z,15
2016-05-06T07:06:51.672Z,15
2016-05-06T07:07:51.362Z,15
2016-05-06T07:08:51.630Z,20
2016-05-06T07:09:51.462Z,25
2016-05-06T07:10:51.308Z,30
2016-05-06T07:11:51.279Z,35
2016-05-06T07:12:51.547Z,40
2016-05-06T07:13:51.566Z,65
2016-05-06T07:14:51.552Z,80
2016-05-06T07:15:51.368Z,85
2016-05-06T07:16:51.339Z,75
2016-05-06T07:17:51.483Z,70
2016-05-06T07:18:51.314Z,70
2016-05-06T07:19:51.301Z,75
2016-05-06T07:20:51.272Z,75
2016-05-06T07:21:51.415Z,80
2016-05-06T07:22:51.470Z,90
2016-05-06T07:23:51.520Z,110
2016-05-06T07:24:51.084Z,105
2016-05-06T07:25:51.040Z,110
2016-05-06T07:26:51.403Z,115
2016-05-06T07:27:51.312Z,90
2016-05-06T07:28:51.142Z,70
2016-05-06T07:29:50.973Z,70
2016-05-06T07:30:51.257Z,60
2016-05-06T07:31:51.120Z,50
2016-05-06T07:32:51.279Z,45
2016-05-06T07:33:51.203Z,40
2016-05-06T07:34:51.252Z,35
2016-05-06T07:35:51.161Z,35
2016-05-06T07:36:51.008Z,30
2016-05-06T07:37:51.150Z,30
2016-05-06T07:38:51.138Z,30
2016-05-06T07:39:51.109Z,30
2016-05-06T07:40:51.097Z,30
2016-05-06T07:41:50.786Z,35
2016-05-06T07:42:50.899Z,40
2016-05-06T07:43:51.058Z,40
2016-05-06T07:44:51.044Z,40
2016-05-06T07:45:51.016Z,35
2016-05-06T07:46:50.832Z,35
2016-05-06T07:47:50.818Z,35
2016-05-06T07:48:50.791Z,45
2016-05-06T07:49:50.777Z,45
2016-05-06T07:50:50.935Z,35
2016-05-06T07:51:50.907Z,30
2016-05-06T07:52:50.582Z,30
2016-05-06T07:53:50.881Z,30
2016-05-06T07:54:50.868Z,35
2016-05-06T07:55:50.527Z,35
2016-05-06T07:56:50.671Z,40
2016-05-06T07:57:50.657Z,35
2016-05-06T07:58:50.818Z,45
2016-05-06T07:59:50.773Z,60
2016-05-06T08:00:50.759Z,70
2016-05-06T08:01:50.590Z,55
2016-05-06T08:02:50.734Z,50
2016-05-06T08:03:50.705Z,60
2016-05-06T08:04:50.692Z,50
2016-05-06T08:05:50.664Z,50
2016-05-06T08:06:50.542Z,60
2016-05-06T08:07:50.638Z,65
2016-05-06T08:08:50.484Z,70
2016-05-06T08:09:50.612Z,70
2016-05-06T08:10:50.599Z,70
2016-05-06T08:11:50.305Z,75
2016-05-06T08:12:50.260Z,70
2016-05-06T08:13:50.530Z,70
2016-05-06T08:14:50.516Z,70
2016-05-06T08:15:50.503Z,80
2016-05-06T08:16:50.646Z,95
2016-05-06T08:17:50.477Z,110
2016-05-06T08:18:50.433Z,115
2016-05-06T08:19:50.295Z,115
2016-05-06T08:20:50.251Z,120
2016-05-06T08:21:50.410Z,115
2016-05-06T08:22:50.069Z,110
2016-05-06T08:23:50.259Z,110
2016-05-06T08:24:50.340Z,120
2016-05-06T08:25:50.030Z,120
2016-05-06T08:26:51.314Z,125
2016-05-06T08:27:50.270Z,130
2016-05-06T08:28:50.288Z,125
2016-05-06T08:29:50.275Z,130
2016-05-06T08:30:50.106Z,125
2016-05-06T08:31:50.265Z,115
2016-05-06T08:32:50.049Z,115
2016-05-06T08:33:50.254Z,125
2016-05-06T08:34:50.179Z,145
2016-05-06T08:35:50.167Z,145
2016-05-06T08:36:49.841Z,145
2016-05-06T08:37:49.812Z,155
2016-05-06T08:38:50.127Z,145
2016-05-06T08:39:50.131Z,140
2016-05-06T08:40:50.086Z,145
2016-05-06T08:41:49.980Z,155
2016-05-06T08:42:50.091Z,165
2016-05-06T08:43:50.047Z,185
2016-05-06T08:44:50.019Z,195
2016-05-06T08:45:49.833Z,200
2016-05-06T08:46:49.977Z,190
2016-05-06T08:47:49.808Z,170
2016-05-06T08:48:49.951Z,155
2016-05-06T08:49:49.922Z,155
2016-05-06T08:50:49.754Z,150
2016-05-06T08:51:49.912Z,155
2016-05-06T08:52:49.885Z,160
2016-05-06T08:53:49.855Z,160
2016-05-06T08:54:49.561Z,165
2016-05-06T08:55:49.829Z,165
2016-05-06T08:56:49.754Z,160
2016-05-06T08:57:49.882Z,160
2016-05-06T08:58:49.807Z,170
2016-05-06T08:59:49.778Z,190
2016-05-06T09:00:49.765Z,215
2016-05-06T09:01:49.736Z,225
2016-05-06T09:02:49.755Z,240
2016-05-06T09:03:49.710Z,265
2016-05-06T09:04:49.729Z,265
2016-05-06T09:05:49.684Z,265
2016-05-06T09:06:49.656Z,275
2016-05-06T09:07:49.330Z,295
2016-05-06T09:08:49.489Z,315
2016-05-06T09:09:49.633Z,325
2016-05-06T09:10:49.604Z,315
2016-05-06T09:11:50.232Z,305
2016-05-06T09:12:49.422Z,285
2016-05-06T09:13:49.550Z,265
2016-05-06T09:14:49.568Z,275
2016-05-06T09:15:49.524Z,295
2016-05-06T09:16:49.370Z,315
2016-05-06T09:17:49.342Z,305
2016-05-06T09:18:49.313Z,265
2016-05-06T09:19:49.457Z,215
2016-05-06T09:20:49.287Z,200
2016-05-06T09:21:49.275Z,190
2016-05-06T09:22:49.480Z,190
2016-05-06T09:23:49.467Z,210
2016-05-06T09:24:49.221Z,260
2016-05-06T09:25:49.380Z,300
2016-05-06T09:26:50.163Z,320
2016-05-06T09:27:49.369Z,340
2016-05-06T09:28:49.481Z,350
2016-05-06T09:29:49.327Z,355
2016-05-06T09:30:49.157Z,330
2016-05-06T09:31:49.129Z,315
2016-05-06T09:32:49.148Z,295
2016-05-06T09:33:49.291Z,260
2016-05-06T09:34:49.263Z,220
2016-05-06T09:35:49.484Z,190
2016-05-06T09:36:49.284Z,185
2016-05-06T09:37:49.052Z,205
2016-05-06T09:38:49.164Z,215
2016-05-06T09:39:49.011Z,190
2016-05-06T09:40:49.154Z,140
2016-05-06T09:41:48.859Z,140
2016-05-06T09:42:49.269Z,160
2016-05-06T09:43:49.115Z,145
2016-05-06T09:44:49.321Z,145
2016-05-06T09:45:48.917Z,160
2016-05-06T09:46:49.061Z,160
2016-05-06T09:47:48.892Z,160
2016-05-06T09:48:48.863Z,165
2016-05-06T09:49:49.005Z,185
2016-05-06T09:50:49.119Z,180
2016-05-06T09:51:49.621Z,170
2016-05-06T09:52:51.092Z,180
2016-05-06T09:53:49.205Z,205
2016-05-06T09:54:51.222Z,210
2016-05-06T09:55:49.366Z,225
2016-05-06T09:56:50.463Z,250
2016-05-06T09:57:51.996Z,210
2016-05-06T09:58:50.905Z,225
2016-05-06T09:59:48.939Z,190
2016-05-06T10:00:52.333Z,195
2016-05-06T10:01:52.273Z,230
2016-05-06T10:02:49.431Z,260
2016-05-06T10:03:49.685Z,290
2016-05-06T10:04:50.843Z,275
2016-05-06T10:05:48.751Z,315
2016-05-06T10:06:48.787Z,285
2016-05-06T10:07:48.789Z,320
2016-05-06T10:08:48.573Z,320
2016-05-06T10:09:48.701Z,275
2016-05-06T10:10:48.375Z,230
2016-05-06T10:11:48.956Z,215
2016-05-06T10:12:48.678Z,240
2016-05-06T10:13:48.665Z,250
2016-05-06T10:14:48.495Z,220
2016-05-06T10:15:48.623Z,185
2016-05-06T10:16:48.469Z,175
2016-05-06T10:17:48.597Z,165
2016-05-06T10:18:49.178Z,140
2016-05-06T10:19:48.571Z,130
2016-05-06T10:20:48.606Z,145
2016-05-06T10:21:48.717Z,155
2016-05-06T10:22:48.517Z,170
2016-05-06T10:23:48.363Z,175
2016-05-06T10:24:48.490Z,195
2016-05-06T10:25:48.322Z,165
2016-05-06T10:26:49.574Z,155
2016-05-06T10:27:48.140Z,190
2016-05-06T10:28:48.314Z,200
2016-05-06T10:29:48.254Z,215
2016-05-06T10:30:48.335Z,270
2016-05-06T10:31:48.260Z,310
2016-05-06T10:32:48.247Z,330
2016-05-06T10:33:48.187Z,320
2016-05-06T10:34:48.393Z,325
2016-05-06T10:35:48.317Z,345
2016-05-06T10:36:47.976Z,350
2016-05-06T10:37:48.338Z,355
2016-05-06T10:38:48.122Z,375
2016-05-06T10:39:48.250Z,415
2016-05-06T10:40:48.143Z,470
2016-05-06T10:41:49.521Z,420
2016-05-06T10:42:48.148Z,375
2016-05-06T10:43:49.167Z,340
2016-05-06T10:44:48.232Z,325
2016-05-06T10:45:48.141Z,330
2016-05-06T10:46:48.019Z,305
2016-05-06T10:47:48.162Z,250
2016-05-06T10:48:50.367Z,215
2016-05-06T10:49:48.231Z,225
2016-05-06T10:50:48.373Z,200
2016-05-06T10:51:48.125Z,170
2016-05-06T10:52:48.082Z,175
2016-05-06T10:53:47.913Z,190
2016-05-06T10:54:48.056Z,220
2016-05-06T10:55:47.856Z,220
2016-05-06T10:56:47.983Z,205
2016-05-06T10:57:48.017Z,195
2016-05-06T10:58:47.832Z,195
2016-05-06T10:59:47.820Z,185
2016-05-06T11:00:47.821Z,180
2016-05-06T11:01:47.950Z,175
2016-05-06T11:02:47.843Z,145
2016-05-06T11:03:47.783Z,145
2016-05-06T11:04:47.973Z,155
2016-05-06T11:05:47.945Z,150
2016-05-06T11:06:48.057Z,135
2016-05-06T11:07:48.373Z,105
2016-05-06T11:08:47.953Z,130
2016-05-06T11:09:47.878Z,150
2016-05-06T11:10:47.662Z,130
2016-05-06T11:11:49.149Z,120
2016-05-06T11:12:47.462Z,125
2016-05-06T11:13:47.745Z,145
2016-05-06T11:14:47.732Z,190
2016-05-06T11:15:47.704Z,200
2016-05-06T11:16:47.737Z,200
2016-05-06T11:17:47.709Z,240
2016-05-06T11:18:47.681Z,250
2016-05-06T11:19:48.011Z,275
2016-05-06T11:20:48.701Z,275
2016-05-06T11:21:48.236Z,235
2016-05-06T11:22:48.379Z,205
2016-05-06T11:23:47.600Z,175
2016-05-06T11:24:47.305Z,155
2016-05-06T11:25:47.450Z,160
2016-05-06T11:26:48.467Z,170
2016-05-06T11:27:47.580Z,190
2016-05-06T11:28:47.520Z,190
2016-05-06T11:29:47.382Z,140
2016-05-06T11:30:47.197Z,130
2016-05-06T11:31:47.528Z,120
2016-05-06T11:32:47.655Z,135
2016-05-06T11:33:47.549Z,155
2016-05-06T11:34:47.443Z,160
2016-05-06T11:35:47.413Z,145
2016-05-06T11:36:47.417Z,140
2016-05-06T11:37:47.388Z,130
2016-05-06T11:38:47.374Z,125
2016-05-06T11:39:47.363Z,110
2016-05-06T11:40:47.459Z,150
2016-05-06T11:41:47.383Z,180
2016-05-06T11:42:47.339Z,175
2016-05-06T11:43:48.701Z,195
2016-05-06T11:44:47.282Z,235
2016-05-06T11:45:47.097Z,235
2016-05-06T11:46:46.928Z,255
2016-05-06T11:47:47.071Z,260
2016-05-06T11:48:47.198Z,250
2016-05-06T11:49:47.186Z,230
2016-05-06T11:50:47.157Z,220
2016-05-06T11:51:47.176Z,210
2016-05-06T11:52:47.147Z,225
2016-05-06T11:53:47.119Z,225
2016-05-06T11:54:47.122Z,200
2016-05-06T11:55:46.952Z,200
2016-05-06T11:56:46.939Z,200
2016-05-06T11:57:46.910Z,175
2016-05-06T11:58:48.758Z,160
2016-05-06T11:59:46.885Z,165
2016-05-06T12:00:47.012Z,170
2016-05-06T12:01:47.000Z,160
2016-05-06T12:02:46.986Z,160
2016-05-06T12:03:46.849Z,140
2016-05-06T12:04:46.773Z,150
2016-05-06T12:05:46.964Z,155
2016-05-06T12:06:46.763Z,145
2016-05-06T12:07:46.765Z,115
2016-05-06T12:08:46.738Z,105
2016-05-06T12:09:46.740Z,115
2016-05-06T12:10:46.868Z,120
2016-05-06T12:11:46.870Z,145
2016-05-06T12:12:46.826Z,160
2016-05-06T12:13:46.829Z,150
2016-05-06T12:14:46.659Z,130
2016-05-06T12:15:46.771Z,115
2016-05-06T12:16:46.680Z,130
2016-05-06T12:17:46.746Z,90
2016-05-06T12:18:46.795Z,85
2016-05-06T12:19:46.564Z,90
2016-05-06T12:20:46.707Z,80
2016-05-06T12:21:46.678Z,80
2016-05-06T12:22:46.665Z,90
2016-05-06T12:23:46.684Z,95
2016-05-06T12:24:46.545Z,90
2016-05-06T12:25:46.486Z,90
2016-05-06T12:26:48.458Z,90
2016-05-06T12:27:46.601Z,90
2016-05-06T12:28:46.431Z,95
2016-05-06T12:29:51.340Z,95
2016-05-06T12:30:46.219Z,95
2016-05-06T12:31:46.502Z,95
2016-05-06T12:32:46.505Z,105
2016-05-06T12:33:46.320Z,115
2016-05-06T12:34:46.463Z,125
2016-05-06T12:35:46.450Z,130
2016-05-06T12:36:46.312Z,135
2016-05-06T12:37:46.253Z,135
2016-05-06T12:38:46.458Z,150
2016-05-06T12:39:47.148Z,160
2016-05-06T12:40:46.386Z,155
2016-05-06T12:41:46.732Z,155
2016-05-06T12:42:46.359Z,165
2016-05-06T12:43:46.004Z,190
2016-05-06T12:44:46.474Z,200
2016-05-06T12:45:46.649Z,195
2016-05-06T12:46:46.261Z,185
2016-05-06T12:47:46.310Z,180
2016-05-06T12:48:46.251Z,175
2016-05-06T12:49:46.082Z,180
2016-05-06T12:50:46.054Z,180
2016-05-06T12:51:46.165Z,185
2016-05-06T12:52:45.996Z,190
2016-05-06T12:53:48.764Z,185
2016-05-06T12:54:53.001Z,185
2016-05-06T12:55:45.801Z,180
2016-05-06T12:56:46.256Z,170
2016-05-06T12:57:46.087Z,155
2016-05-06T12:58:45.950Z,155
2016-05-06T12:59:46.047Z,160
2016-05-06T13:00:46.049Z,150
2016-05-06T13:01:46.020Z,135
2016-05-06T13:02:45.992Z,130
2016-05-06T13:03:45.525Z,120
2016-05-06T13:04:45.528Z,105
2016-05-06T13:05:47.016Z,110
2016-05-06T13:06:46.221Z,120
2016-05-06T13:07:49.708Z,140
2016-05-06T13:08:51.867Z,160
2016-05-06T13:09:45.776Z,175
2016-05-06T13:10:46.326Z,195
2016-05-06T13:11:46.110Z,185
2016-05-06T13:12:45.674Z,170
2016-05-06T13:13:45.818Z,170
2016-05-06T13:14:45.649Z,205
2016-05-06T13:15:45.793Z,230
2016-05-06T13:16:45.763Z,225
2016-05-06T13:17:45.751Z,220
2016-05-06T13:18:45.816Z,250
2016-05-06T13:19:45.772Z,245
2016-05-06T13:20:45.556Z,205
2016-05-06T13:21:45.809Z,180
2016-05-06T13:22:45.515Z,150
2016-05-06T13:23:45.846Z,130
2016-05-06T13:24:46.145Z,125
2016-05-06T13:25:45.522Z,115
2016-05-06T13:26:45.494Z,95
2016-05-06T13:27:45.653Z,90
2016-05-06T13:28:45.593Z,90
2016-05-06T13:29:45.548Z,95
2016-05-06T13:30:45.567Z,95
2016-05-06T13:31:45.523Z,105
2016-05-06T13:32:45.495Z,110
2016-05-06T13:33:45.169Z,115
2016-05-06T13:34:45.531Z,120
2016-05-06T13:35:45.518Z,115
2016-05-06T13:36:45.662Z,90
2016-05-06T13:37:45.304Z,80
2016-05-06T13:38:45.291Z,70
2016-05-06T13:39:45.247Z,70
2016-05-06T13:40:45.235Z,70
2016-05-06T13:41:45.580Z,75
2016-05-06T13:42:45.458Z,75
2016-05-06T13:43:45.165Z,85
2016-05-06T13:44:45.199Z,85
2016-05-06T13:45:45.373Z,95
2016-05-06T13:46:46.110Z,110
2016-05-06T13:47:45.268Z,125
2016-05-06T13:48:45.756Z,140
2016-05-06T13:49:45.087Z,150
2016-05-06T13:50:45.245Z,155
2016-05-06T13:51:45.311Z,150
2016-05-06T13:52:45.345Z,145
2016-05-06T13:53:45.238Z,140
2016-05-06T13:54:45.148Z,145
2016-05-06T13:55:45.165Z,150
2016-05-06T13:56:45.653Z,170
2016-05-06T13:57:45.109Z,200
2016-05-06T13:58:44.939Z,225
2016-05-06T13:59:44.926Z,250
2016-05-06T14:00:44.897Z,265
2016-05-06T14:01:44.853Z,265
2016-05-06T14:02:45.091Z,265
2016-05-06T14:03:45.015Z,260
2016-05-06T14:04:45.080Z,245
2016-05-06T14:05:45.052Z,235
2016-05-06T14:06:45.039Z,230
2016-05-06T14:07:44.948Z,225
2016-05-06T14:08:45.153Z,225
2016-05-06T14:09:45.000Z,235
2016-05-06T14:10:44.894Z,230
2016-05-06T14:11:44.772Z,270
2016-05-06T14:12:58.727Z,315
2016-05-06T14:13:44.699Z,295
2016-05-06T14:14:44.826Z,290
2016-05-06T14:15:44.797Z,295
2016-05-06T14:16:44.785Z,280
2016-05-06T14:17:44.844Z,290